createdAt,value
2019-02-14T00:02:42.740Z,124.47
2019-02-14T00:05:37.157Z,133.13
2019-02-14T00:08:31.461Z,126.00
2019-02-14T00:11:26.005Z,139.50
2019-02-14T00:14:20.383Z,123.67
2019-02-14T00:17:14.616Z,136.60
2019-02-14T00:20:10.538Z,142.90
2019-02-14T00:23:04.916Z,146.17
2019-02-14T00:25:59.385Z,150.87
2019-02-14T00:28:53.576Z,132.00
2019-02-14T00:31:48.029Z,134.10
2019-02-14T00:34:42.331Z,163.50
2019-02-14T00:37:36.700Z,145.80
2019-02-14T00:40:30.770Z,154.00
2019-02-14T00:43:24.790Z,169.17
2019-02-14T00:46:19.357Z,160.30
2019-02-14T00:49:13.507Z,218.73
2019-02-14T00:52:07.500Z,179.87
2019-02-14T00:55:01.681Z,189.07
2019-02-14T00:57:57.295Z,174.57
2019-02-14T01:00:51.727Z,187.20
2019-02-14T01:03:46.171Z,175.77
2019-02-14T01:06:40.425Z,163.47
2019-02-14T01:09:34.691Z,149.87
2019-02-14T01:12:28.667Z,162.77
2019-02-14T01:15:26.824Z,150.83
2019-02-14T01:18:22.862Z,154.17
2019-02-14T01:21:18.044Z,175.07
2019-02-14T01:24:13.419Z,182.73
2019-02-14T01:27:08.141Z,226.23
2019-02-14T01:30:03.356Z,214.10
2019-02-14T01:32:58.303Z,189.07
2019-02-14T01:35:52.609Z,212.60
2019-02-14T01:38:46.916Z,214.23
2019-02-14T01:41:41.486Z,241.20
2019-02-14T01:44:35.803Z,227.20
2019-02-14T01:47:30.630Z,319.87
2019-02-14T01:50:25.182Z,275.80
2019-02-14T01:53:19.176Z,311.40
2019-02-14T01:56:13.601Z,266.13
2019-02-14T01:59:07.870Z,281.43
2019-02-14T02:02:03.454Z,299.83
2019-02-14T02:04:57.910Z,276.10
2019-02-14T02:07:53.172Z,193.07
2019-02-14T02:10:47.391Z,189.70
2019-02-14T02:13:41.882Z,168.57
2019-02-14T02:16:36.017Z,183.10
2019-02-14T02:19:30.483Z,230.40
2019-02-14T02:22:24.814Z,182.00
2019-02-14T02:25:19.039Z,191.90
2019-02-14T02:28:13.556Z,194.37
2019-02-14T02:31:07.999Z,198.80
2019-02-14T02:34:02.991Z,207.67
2019-02-14T02:36:57.609Z,219.83
2019-02-14T02:39:50.462Z,211.83
2019-02-14T02:42:45.152Z,177.27
2019-02-14T02:45:39.524Z,162.70
2019-02-14T02:48:33.743Z,185.77
2019-02-14T02:51:28.477Z,163.13
2019-02-14T02:54:22.641Z,172.07
2019-02-14T02:57:17.264Z,177.87
2019-02-14T03:00:16.075Z,194.00
2019-02-14T03:03:10.440Z,183.27
2019-02-14T03:06:10.541Z,170.87
2019-02-14T03:09:02.039Z,186.03
2019-02-14T03:11:57.836Z,203.37
2019-02-14T03:14:52.457Z,166.20
2019-02-14T03:17:47.211Z,177.33
2019-02-14T03:20:41.431Z,177.60
2019-02-14T03:23:35.817Z,167.33
2019-02-14T03:26:30.060Z,178.67
2019-02-14T03:29:25.237Z,180.17
2019-02-14T03:32:20.713Z,167.67
2019-02-14T03:35:14.818Z,174.87
2019-02-14T03:38:08.980Z,179.53
2019-02-14T03:41:03.989Z,170.43
2019-02-14T03:43:58.117Z,168.17
2019-02-14T03:46:56.388Z,169.50
2019-02-14T03:49:50.934Z,161.33
2019-02-14T03:52:45.573Z,159.67
2019-02-14T03:55:39.844Z,160.97
2019-02-14T03:58:34.634Z,158.77
2019-02-14T04:01:28.811Z,178.53
2019-02-14T04:04:23.010Z,150.07
2019-02-14T04:07:17.064Z,152.63
2019-02-14T04:10:13.394Z,164.90
2019-02-14T04:13:07.704Z,158.03
2019-02-14T04:16:04.539Z,146.90
2019-02-14T04:18:58.993Z,153.83
2019-02-14T04:21:55.007Z,155.10
2019-02-14T04:24:51.579Z,153.77
2019-02-14T04:27:45.985Z,152.40
2019-02-14T04:30:42.479Z,167.13
2019-02-14T04:33:36.584Z,152.67
2019-02-14T04:36:36.004Z,183.93
2019-02-14T04:39:27.258Z,229.77
2019-02-14T04:42:22.328Z,222.53
2019-02-14T04:45:17.463Z,199.30
2019-02-14T04:48:14.935Z,185.97
2019-02-14T04:51:15.882Z,156.73
2019-02-14T04:54:10.662Z,165.50
2019-02-14T04:57:05.636Z,133.67
2019-02-14T05:00:01.878Z,136.30
2019-02-14T05:02:52.706Z,148.63
2019-02-14T05:06:29.776Z,147.60
2019-02-14T05:08:52.184Z,142.47
2019-02-14T05:11:51.990Z,123.67
2019-02-14T05:14:46.977Z,123.43
2019-02-14T05:17:50.150Z,110.07
2019-02-14T05:20:48.079Z,105.67
2019-02-14T05:23:50.607Z,113.00
2019-02-14T05:26:51.217Z,116.70
2019-02-14T05:29:47.439Z,94.03
2019-02-14T05:32:50.643Z,83.23
2019-02-14T05:36:42.788Z,78.93
2019-02-14T05:39:42.583Z,79.87
2019-02-14T05:43:25.734Z,76.97
2019-02-14T05:46:21.950Z,84.30
2019-02-14T05:49:24.012Z,77.17
2019-02-14T05:52:21.289Z,78.40
2019-02-14T05:55:19.676Z,70.60
2019-02-14T05:58:16.458Z,88.40
2019-02-14T06:01:17.238Z,63.30
2019-02-14T06:04:20.557Z,65.47
2019-02-14T06:07:18.797Z,67.47
2019-02-14T06:10:36.106Z,59.40
2019-02-14T06:13:36.367Z,77.07
2019-02-14T06:17:13.582Z,56.37
2019-02-14T06:20:12.026Z,64.67
2019-02-14T06:23:09.506Z,62.07
2019-02-14T06:40:04.228Z,62.93
2019-02-14T06:43:34.671Z,67.50
2019-02-14T06:47:05.585Z,61.60
2019-02-14T06:53:30.816Z,69.43
2019-02-14T07:00:37.941Z,58.43
2019-02-14T07:03:39.121Z,52.77
2019-02-14T07:09:41.270Z,63.67
2019-02-14T07:12:46.573Z,60.03
2019-02-14T07:15:40.693Z,63.75
2019-02-14T07:18:58.124Z,64.55
2019-02-14T07:22:27.016Z,69.25
2019-02-14T07:26:20.919Z,58.60
2019-02-14T07:28:52.659Z,53.03
2019-02-14T07:32:04.333Z,59.07
2019-02-14T07:36:08.645Z,50.48
2019-02-14T07:39:27.572Z,48.57
2019-02-14T07:42:38.086Z,68.43
2019-02-14T07:49:13.037Z,62.80
2019-02-14T07:52:12.142Z,72.90
2019-02-14T07:55:19.980Z,65.57
2019-02-14T08:05:25.097Z,50.77
2019-02-14T08:08:26.265Z,57.80
2019-02-14T08:11:51.825Z,62.10
2019-02-14T08:14:46.866Z,108.73
2019-02-14T08:17:48.017Z,61.15
2019-02-14T08:20:43.610Z,63.33
2019-02-14T08:23:39.394Z,65.30
2019-02-14T08:26:34.802Z,56.40
2019-02-14T08:29:31.175Z,62.20
2019-02-14T08:32:59.578Z,62.27
2019-02-14T08:35:54.814Z,54.47
2019-02-14T08:38:50.352Z,64.42
2019-02-14T08:41:47.713Z,61.73
2019-02-14T08:44:45.011Z,59.88
2019-02-14T08:47:41.670Z,74.20
2019-02-14T08:50:56.201Z,56.40
2019-02-14T09:00:11.307Z,67.57
2019-02-14T09:03:30.572Z,58.25
2019-02-14T09:06:35.598Z,61.47
2019-02-14T09:10:27.710Z,46.97
2019-02-14T09:16:49.425Z,57.30
2019-02-14T09:26:52.932Z,68.28
2019-02-14T09:30:08.985Z,54.33
2019-02-14T09:33:14.634Z,65.40
2019-02-14T09:36:12.435Z,46.02
2019-02-14T09:39:07.550Z,46.93
2019-02-14T09:42:08.214Z,46.42
2019-02-14T09:45:03.095Z,56.80
2019-02-14T09:48:08.747Z,47.90
2019-02-14T09:51:08.616Z,48.75
2019-02-14T09:54:03.411Z,45.70
2019-02-14T09:56:52.123Z,56.05
2019-02-14T10:05:20.850Z,45.43
2019-02-14T10:08:50.450Z,46.75
2019-02-14T10:12:44.950Z,51.00
2019-02-14T10:16:10.165Z,45.80
2019-02-14T10:19:28.787Z,52.90
2019-02-14T10:22:30.767Z,43.80
2019-02-14T10:25:29.383Z,51.00
2019-02-14T10:28:24.042Z,60.13
2019-02-14T10:31:19.329Z,47.93
2019-02-14T10:34:15.446Z,54.13
2019-02-14T10:37:24.335Z,54.40
2019-02-14T10:40:25.732Z,51.37
2019-02-14T10:44:06.059Z,53.43
2019-02-14T10:47:07.664Z,59.20
2019-02-14T10:50:05.094Z,52.25
2019-02-14T10:53:03.132Z,48.55
2019-02-14T10:56:10.550Z,54.87
2019-02-14T10:59:08.804Z,51.18
2019-02-14T11:02:07.530Z,46.70
2019-02-14T11:05:41.646Z,57.53
2019-02-14T11:08:40.420Z,52.33
2019-02-14T11:17:05.825Z,47.77
2019-02-14T11:19:20.789Z,53.63
2019-02-14T11:23:11.665Z,48.23
2019-02-14T11:26:34.188Z,43.53
2019-02-14T11:37:36.363Z,51.35
2019-02-14T11:40:39.707Z,56.27
2019-02-14T11:44:39.583Z,44.67
2019-02-14T11:47:51.811Z,48.20
2019-02-14T11:51:07.079Z,49.03
2019-02-14T11:54:42.746Z,49.53
2019-02-14T11:57:46.956Z,53.13
2019-02-14T12:00:44.757Z,44.70
2019-02-14T12:03:49.720Z,47.43
2019-02-14T12:06:47.517Z,55.60
2019-02-14T12:09:45.407Z,46.20
2019-02-14T12:12:40.172Z,47.40
2019-02-14T12:15:34.716Z,44.50
2019-02-14T12:18:30.556Z,48.47
2019-02-14T12:21:25.613Z,52.83
2019-02-14T12:24:35.362Z,53.60
2019-02-14T12:32:09.640Z,52.13
2019-02-14T12:38:09.561Z,57.62
2019-02-14T12:41:12.654Z,54.97
2019-02-14T12:47:49.955Z,56.57
2019-02-14T12:50:46.297Z,54.37
2019-02-14T12:53:58.369Z,55.35
2019-02-14T12:56:56.251Z,46.70
2019-02-14T13:00:14.082Z,53.83
2019-02-14T13:06:01.956Z,45.35
2019-02-14T13:28:09.366Z,46.58
2019-02-14T13:33:58.623Z,43.80
2019-02-14T13:37:01.290Z,46.10
2019-02-14T13:40:03.675Z,41.47
2019-02-14T13:42:52.188Z,41.90
2019-02-14T13:45:47.087Z,41.18
2019-02-14T13:48:41.362Z,47.50
2019-02-14T13:51:35.812Z,44.30
2019-02-14T13:54:30.249Z,49.97
2019-02-14T13:57:25.082Z,44.25
2019-02-14T14:00:30.326Z,44.60
2019-02-14T14:03:27.155Z,49.77
2019-02-14T14:06:21.239Z,41.73
2019-02-14T14:09:16.344Z,43.23
2019-02-14T14:12:11.202Z,46.97
2019-02-14T14:15:05.516Z,42.90
2019-02-14T14:18:00.316Z,41.10
2019-02-14T14:20:55.440Z,36.88
2019-02-14T14:23:53.085Z,42.93
2019-02-14T14:29:58.380Z,41.87
2019-02-14T14:33:21.278Z,42.58
2019-02-14T14:36:46.532Z,41.75
2019-02-14T14:40:07.651Z,45.00
2019-02-14T14:43:48.071Z,44.20
2019-02-14T14:47:25.294Z,46.13
2019-02-14T14:50:33.810Z,40.03
2019-02-14T14:53:28.658Z,41.23
2019-02-14T14:56:48.540Z,45.27
2019-02-14T14:59:43.405Z,38.67
2019-02-14T15:02:38.118Z,38.55
2019-02-14T15:05:32.708Z,45.13
2019-02-14T15:08:26.934Z,39.77
2019-02-14T15:11:22.870Z,39.48
2019-02-14T15:14:17.311Z,45.93
2019-02-14T15:17:12.203Z,43.17
2019-02-14T15:20:06.492Z,45.90
2019-02-14T15:23:02.255Z,37.30
2019-02-14T15:25:56.534Z,39.90
2019-02-14T15:28:51.740Z,40.73
2019-02-14T15:34:37.090Z,44.70
2019-02-14T15:40:21.870Z,45.27
2019-02-14T15:43:16.237Z,42.93
2019-02-14T15:46:10.730Z,45.10
2019-02-14T15:49:06.952Z,41.57
2019-02-14T15:52:03.343Z,41.57
2019-02-14T15:54:58.136Z,42.40
2019-02-14T15:57:53.470Z,43.53
2019-02-14T16:00:49.423Z,39.80
2019-02-14T16:03:44.170Z,41.03
2019-02-14T16:06:42.503Z,46.50
2019-02-14T16:09:48.746Z,46.47
2019-02-14T16:12:43.524Z,43.43
2019-02-14T16:15:59.394Z,42.33
2019-02-14T16:18:56.713Z,49.80
2019-02-14T16:21:52.096Z,37.97
2019-02-14T16:24:47.233Z,44.20
2019-02-14T16:27:42.035Z,50.65
2019-02-14T16:30:36.592Z,46.10
2019-02-14T16:33:32.238Z,43.20
2019-02-14T16:36:26.578Z,41.67
2019-02-14T16:39:22.957Z,42.93
2019-02-14T16:42:17.542Z,47.23
2019-02-14T16:45:12.349Z,46.87
2019-02-14T16:48:07.357Z,47.47
2019-02-14T16:51:02.252Z,50.90
2019-02-14T16:54:02.783Z,46.73
2019-02-14T16:56:57.348Z,47.93
2019-02-14T16:59:54.919Z,41.37
2019-02-14T17:02:49.774Z,49.97
2019-02-14T17:05:48.343Z,40.77
2019-02-14T17:08:44.569Z,42.03
2019-02-14T17:14:48.403Z,47.90
2019-02-14T17:17:44.988Z,51.20
2019-02-14T17:20:45.486Z,54.33
2019-02-14T17:28:01.999Z,49.07
2019-02-14T17:30:57.556Z,46.40
2019-02-14T17:33:51.715Z,48.07
2019-02-14T17:36:47.420Z,51.13
2019-02-14T17:39:41.851Z,46.20
2019-02-14T17:42:46.642Z,53.07
2019-02-14T17:45:51.403Z,48.43
2019-02-14T17:49:06.177Z,53.38
2019-02-14T17:52:00.836Z,48.20
2019-02-14T17:55:13.953Z,45.35
2019-02-14T17:57:59.968Z,53.47
2019-02-14T18:00:54.414Z,57.30
2019-02-14T18:03:48.842Z,56.33
2019-02-14T18:06:43.068Z,52.93
2019-02-14T18:09:31.732Z,49.70
2019-02-14T18:12:26.323Z,52.67
2019-02-14T18:15:20.920Z,48.80
2019-02-14T18:18:15.397Z,48.07
2019-02-14T18:21:25.950Z,52.53
2019-02-14T18:24:20.671Z,52.67
2019-02-14T18:27:15.246Z,52.38
2019-02-14T18:30:10.677Z,55.85
2019-02-14T18:33:05.324Z,48.77
2019-02-14T18:35:59.557Z,49.63
2019-02-14T18:38:53.923Z,42.70
2019-02-14T18:41:48.769Z,42.97
2019-02-14T18:44:43.197Z,46.20
2019-02-14T18:47:39.975Z,46.50
2019-02-14T18:50:36.218Z,46.13
2019-02-14T18:53:30.775Z,51.53
2019-02-14T18:56:25.323Z,46.10
2019-02-14T18:59:27.752Z,46.07
2019-02-14T19:02:26.879Z,45.67
2019-02-14T19:05:22.022Z,52.13
2019-02-14T19:08:16.530Z,52.20
2019-02-14T19:11:15.284Z,45.60
2019-02-14T19:14:09.107Z,50.67
2019-02-14T19:17:03.533Z,51.68
2019-02-14T19:19:58.391Z,52.85
2019-02-14T19:22:53.196Z,52.33
2019-02-14T19:25:48.160Z,53.63
2019-02-14T19:28:55.354Z,50.10
2019-02-14T19:31:50.471Z,49.73
2019-02-14T19:34:45.451Z,50.87
2019-02-14T19:37:41.324Z,52.80
2019-02-14T19:40:37.281Z,47.20
2019-02-14T19:43:32.178Z,51.90
2019-02-14T19:46:20.919Z,53.90
2019-02-14T19:49:16.774Z,48.33
2019-02-14T19:52:11.975Z,50.93
2019-02-14T19:55:11.787Z,52.97
2019-02-14T19:58:07.916Z,53.17
2019-02-14T20:01:02.771Z,47.50
2019-02-14T20:04:00.850Z,46.70
2019-02-14T20:07:05.152Z,48.60
2019-02-14T20:10:02.029Z,54.37
2019-02-14T20:13:04.094Z,54.00
2019-02-14T20:16:01.197Z,49.20
2019-02-14T20:18:55.983Z,52.10
2019-02-14T20:21:50.840Z,47.47
2019-02-14T20:24:48.050Z,54.37
2019-02-14T20:27:42.551Z,53.38
2019-02-14T20:30:38.428Z,49.27
2019-02-14T20:33:36.948Z,49.23
2019-02-14T20:36:31.545Z,48.73
2019-02-14T20:39:26.323Z,53.33
2019-02-14T20:42:22.639Z,47.07
2019-02-14T20:45:17.404Z,49.90
2019-02-14T20:48:12.219Z,52.83
2019-02-14T20:51:06.665Z,47.67
2019-02-14T20:54:02.181Z,54.03
2019-02-14T20:56:59.906Z,55.70
2019-02-14T20:59:56.614Z,48.23
2019-02-14T21:02:52.628Z,54.73
2019-02-14T21:05:49.236Z,52.55
2019-02-14T21:08:48.625Z,54.90
2019-02-14T21:11:42.983Z,61.80
2019-02-14T21:14:40.302Z,57.50
2019-02-14T21:17:37.085Z,55.80
2019-02-14T21:20:31.483Z,53.83
2019-02-14T21:23:27.345Z,62.80
2019-02-14T21:26:26.865Z,63.63
2019-02-14T21:29:21.582Z,69.17
2019-02-14T21:32:16.303Z,60.93
2019-02-14T21:35:10.774Z,57.70
2019-02-14T21:38:12.654Z,51.13
2019-02-14T21:41:07.144Z,55.30
2019-02-14T21:44:04.148Z,58.30
2019-02-14T21:47:05.229Z,59.40
2019-02-14T21:49:58.734Z,56.37
2019-02-14T21:52:53.168Z,53.60
2019-02-14T21:55:52.780Z,52.90
2019-02-14T21:58:47.237Z,66.00
2019-02-14T22:01:41.559Z,66.60
2019-02-14T22:04:36.947Z,60.03
2019-02-14T22:07:34.956Z,57.35
2019-02-14T22:10:27.053Z,59.37
2019-02-14T22:13:21.685Z,56.60
2019-02-14T22:16:15.974Z,54.60
2019-02-14T22:19:10.337Z,55.80
2019-02-14T22:22:04.868Z,66.93
2019-02-14T22:24:59.490Z,62.73
2019-02-14T22:27:53.991Z,70.67
2019-02-14T22:30:48.629Z,53.83
2019-02-14T22:33:43.148Z,60.00
2019-02-14T22:36:37.579Z,62.53
2019-02-14T22:39:32.017Z,66.77
2019-02-14T22:42:26.414Z,63.47
2019-02-14T22:45:21.244Z,63.03
2019-02-14T22:48:15.888Z,66.60
2019-02-14T22:51:10.207Z,60.00
2019-02-14T22:54:04.424Z,59.43
2019-02-14T22:56:59.007Z,84.03
2019-02-14T22:59:53.382Z,72.40
2019-02-14T23:03:13.337Z,66.33
2019-02-14T23:06:00.914Z,71.22
2019-02-14T23:09:16.493Z,79.73
2019-02-14T23:12:38.030Z,82.43
2019-02-14T23:15:48.856Z,86.23
2019-02-14T23:19:11.114Z,105.57
2019-02-14T23:22:37.800Z,136.60
2019-02-14T23:25:53.061Z,115.57
2019-02-14T23:28:54.474Z,118.47
2019-02-14T23:31:49.056Z,97.40
2019-02-14T23:34:50.959Z,102.40
2019-02-14T23:37:44.708Z,128.75
2019-02-14T23:40:39.154Z,114.67
2019-02-14T23:43:42.502Z,111.23
2019-02-14T23:46:43.056Z,112.03
2019-02-14T23:49:37.941Z,131.47
2019-02-14T23:52:32.338Z,100.70
2019-02-14T23:55:27.459Z,117.23
2019-02-14T23:58:21.934Z,122.77
